Time;durP1;ratioP1;P1;durP2;ratioP2;P2;SDS_P1;SDS_P2;PMS_P1;PMS_P2;Temp;Humidity;BMP_temperature;BMP_pressure;BME280_temperature;BME280_humidity;BME280_pressure;Samples;Min_cycle;Max_cycle;Signal;HPM_P1;HPM_P2
2023/08/22 00:00:38;;;;;;;9.50;7.33;;;20.80;99.90;;;;;;2064446;28;20536;-84
2023/08/22 00:01:39;;;;;;;8.30;7.43;;;20.80;99.90;;;;;;2080765;28;20783;-83
2023/08/22 00:02:40;;;;;;;10.23;6.90;;;20.80;99.90;;;;;;2080738;28;20311;-83
2023/08/22 00:03:41;;;;;;;7.17;6.40;;;20.80;99.90;;;;;;2063852;28;20317;-83
2023/08/22 00:04:41;;;;;;;8.53;7.63;;;20.70;99.90;;;;;;2060782;28;20233;-83
2023/08/22 00:05:42;;;;;;;8.27;7.47;;;20.80;99.90;;;;;;2069070;28;20240;-83
2023/08/22 00:06:43;;;;;;;8.67;7.80;;;20.80;99.90;;;;;;2064298;28;20221;-83
2023/08/22 00:07:44;;;;;;;8.07;7.27;;;20.80;99.90;;;;;;2064563;28;20313;-82
2023/08/22 00:08:45;;;;;;;10.90;7.40;;;20.70;99.90;;;;;;2068137;28;20260;-84
2023/08/22 00:09:46;;;;;;;10.90;7.13;;;20.70;99.90;;;;;;2072130;28;20304;-83
2023/08/22 00:10:47;;;;;;;7.37;6.67;;;20.60;99.90;;;;;;2072633;28;20553;-83
2023/08/22 00:11:47;;;;;;;8.03;7.03;;;20.60;99.90;;;;;;2072532;28;20248;-83
2023/08/22 00:12:48;;;;;;;9.00;7.37;;;20.60;99.90;;;;;;2072724;28;20213;-83
2023/08/22 00:13:49;;;;;;;11.23;6.87;;;20.60;99.90;;;;;;2060536;28;20222;-84
2023/08/22 00:14:50;;;;;;;8.73;7.87;;;20.70;99.90;;;;;;2068053;28;20237;-82
2023/08/22 00:15:51;;;;;;;8.57;7.03;;;20.70;99.90;;;;;;2076642;28;20292;-84
2023/08/22 00:16:51;;;;;;;7.93;6.77;;;20.80;99.90;;;;;;2068481;28;20500;-83
2023/08/22 00:17:52;;;;;;;8.57;7.60;;;20.80;99.90;;;;;;2060780;28;20218;-82
2023/08/22 00:18:53;;;;;;;7.07;6.40;;;20.80;99.90;;;;;;2067961;28;20218;-83
2023/08/22 00:19:54;;;;;;;8.43;7.53;;;20.70;99.90;;;;;;2071989;28;20287;-82
2023/08/22 00:20:54;;;;;;;9.40;6.73;;;20.80;99.90;;;;;;2054952;28;20696;-83
2023/08/22 00:21:55;;;;;;;7.43;6.70;;;20.80;99.90;;;;;;2053181;28;20215;-84
2023/08/22 00:22:56;;;;;;;8.77;7.30;;;20.80;99.90;;;;;;2055492;28;20277;-83
2023/08/22 00:23:58;;;;;;;8.03;7.07;;;20.80;99.90;;;;;;2060745;28;20217;-83
2023/08/22 00:24:59;;;;;;;7.57;6.40;;;20.80;99.90;;;;;;2078285;28;20220;-83
2023/08/22 00:25:59;;;;;;;8.47;6.90;;;20.70;99.90;;;;;;2068586;28;20463;-83
2023/08/22 00:27:00;;;;;;;10.03;6.97;;;20.70;99.90;;;;;;2066854;28;20706;-83
2023/08/22 00:28:01;;;;;;;11.30;7.00;;;20.70;99.90;;;;;;2072014;28;20248;-82
2023/08/22 00:29:02;;;;;;;9.60;8.43;;;20.70;99.90;;;;;;2072302;28;20217;-82
2023/08/22 00:30:04;;;;;;;8.03;7.23;;;20.70;99.90;;;;;;2068203;28;20258;-82
2023/08/22 00:31:04;;;;;;;9.70;7.60;;;20.70;99.90;;;;;;2060081;28;20674;-82
2023/08/22 00:32:05;;;;;;;7.73;6.50;;;20.60;99.90;;;;;;2055940;28;20425;-83
2023/08/22 00:33:06;;;;;;;10.50;7.23;;;20.60;99.90;;;;;;2064241;28;20202;-84
2023/08/22 00:34:07;;;;;;;8.63;6.33;;;20.50;99.90;;;;;;2072073;28;20197;-84
2023/08/22 00:35:08;;;;;;;11.13;7.23;;;20.60;99.90;;;;;;2061873;28;20206;-83
2023/08/22 00:36:09;;;;;;;7.83;7.00;;;20.50;99.90;;;;;;2061173;28;20190;-83
2023/08/22 00:37:09;;;;;;;8.57;7.07;;;20.50;99.90;;;;;;2063643;28;20476;-84
2023/08/22 00:38:10;;;;;;;8.20;7.23;;;20.40;99.90;;;;;;2068902;28;20650;-84
2023/08/22 00:39:11;;;;;;;9.97;7.53;;;20.40;99.90;;;;;;2067937;28;20265;-84
2023/08/22 00:40:11;;;;;;;8.27;6.97;;;20.40;99.90;;;;;;2071934;28;20200;-84
2023/08/22 00:41:12;;;;;;;8.23;7.43;;;20.40;99.90;;;;;;2068230;28;20685;-83
2023/08/22 00:42:13;;;;;;;8.67;7.37;;;20.40;99.90;;;;;;2067591;28;20215;-84
2023/08/22 00:43:14;;;;;;;9.30;7.60;;;20.40;99.90;;;;;;2070823;28;20301;-84
2023/08/22 00:44:14;;;;;;;12.20;7.60;;;20.40;99.90;;;;;;2070278;28;20185;-83
2023/08/22 00:45:15;;;;;;;9.43;7.50;;;20.50;99.90;;;;;;2069640;28;20185;-83
2023/08/22 00:46:16;;;;;;;8.43;7.50;;;20.40;99.90;;;;;;2063961;28;20826;-84
2023/08/22 00:47:18;;;;;;;8.67;7.73;;;20.50;99.90;;;;;;2060550;28;20198;-84
2023/08/22 00:48:19;;;;;;;9.33;8.33;;;20.50;99.90;;;;;;2062912;28;20428;-83
2023/08/22 00:49:20;;;;;;;9.37;7.60;;;20.50;99.90;;;;;;2063965;28;20542;-84
2023/08/22 00:50:21;;;;;;;10.70;7.80;;;20.50;99.90;;;;;;2063945;28;20584;-83
2023/08/22 00:51:22;;;;;;;9.00;8.10;;;20.50;99.90;;;;;;2063949;28;20474;-82
2023/08/22 00:52:23;;;;;;;8.80;7.20;;;20.50;99.90;;;;;;2068178;28;20304;-83
2023/08/22 00:53:25;;;;;;;9.03;7.87;;;20.50;99.90;;;;;;2059269;28;20469;-82
2023/08/22 00:54:28;;;;;;;8.87;7.97;;;20.50;99.90;;;;;;2053090;28;20269;-84
2023/08/22 00:55:29;;;;;;;8.57;7.67;;;20.50;99.90;;;;;;2063972;28;20472;-83
2023/08/22 00:56:30;;;;;;;8.10;7.27;;;20.50;99.90;;;;;;2059671;28;20456;-83
2023/08/22 00:57:31;;;;;;;10.57;7.67;;;20.40;99.90;;;;;;2065490;28;20258;-83
2023/08/22 00:58:32;;;;;;;8.30;7.13;;;20.40;99.90;;;;;;2071882;28;20237;-83
2023/08/22 00:59:33;;;;;;;8.67;7.63;;;20.40;99.90;;;;;;2064008;28;20244;-83
2023/08/22 01:00:34;;;;;;;8.87;7.50;;;20.40;99.90;;;;;;2065243;28;20845;-84
2023/08/22 01:01:34;;;;;;;9.40;7.83;;;20.40;99.90;;;;;;2060357;28;20234;-84
2023/08/22 01:02:37;;;;;;;10.60;7.40;;;20.40;99.90;;;;;;2066931;28;20463;-84
2023/08/22 01:03:38;;;;;;;10.23;7.63;;;20.40;99.90;;;;;;2051731;28;20234;-84
2023/08/22 01:04:39;;;;;;;8.43;7.13;;;20.40;99.90;;;;;;2059173;28;20457;-84
2023/08/22 01:05:50;;;;;;;9.67;7.23;;;20.40;99.90;;;;;;2063398;28;20554;-84
2023/08/22 01:06:58;;;;;;;10.20;7.60;;;20.40;99.90;;;;;;2065973;28;20682;-84
2023/08/22 01:08:10;;;;;;;9.30;7.97;;;20.40;99.90;;;;;;2070799;28;20545;-83
2023/08/22 01:09:40;;;;;;;8.67;7.77;;;20.40;99.90;;;;;;2063231;28;20526;-84
2023/08/22 01:10:50;;;;;;;7.77;6.97;;;20.40;99.90;;;;;;2054944;28;20515;-83
2023/08/22 01:11:58;;;;;;;9.77;7.50;;;20.50;99.90;;;;;;2065385;28;20464;-84
2023/08/22 01:13:12;;;;;;;7.97;6.30;;;20.50;99.90;;;;;;2064005;28;20953;-83
2023/08/22 01:14:19;;;;;;;8.50;7.60;;;20.50;99.90;;;;;;2063479;28;20458;-84
2023/08/22 01:15:24;;;;;;;8.47;7.07;;;20.50;99.90;;;;;;2061359;28;20861;-84
2023/08/22 01:16:26;;;;;;;8.57;7.20;;;20.50;99.90;;;;;;2056172;28;20492;-84
2023/08/22 01:17:27;;;;;;;9.47;7.33;;;20.50;99.90;;;;;;2063640;28;20475;-83
2023/08/22 01:18:29;;;;;;;9.73;8.03;;;20.50;99.90;;;;;;2068660;28;20475;-84
2023/08/22 01:19:30;;;;;;;10.57;7.80;;;20.50;99.90;;;;;;2063289;28;20468;-83
2023/08/22 01:20:31;;;;;;;9.80;7.60;;;20.50;99.90;;;;;;2058631;28;20464;-83
2023/08/22 01:21:53;;;;;;;8.97;7.57;;;20.50;99.90;;;;;;2059098;28;20293;-83
2023/08/22 01:22:55;;;;;;;9.97;7.30;;;20.40;99.90;;;;;;2062512;28;20321;-84
2023/08/22 01:23:55;;;;;;;7.67;6.87;;;20.50;99.90;;;;;;2060739;28;20491;-82
2023/08/22 01:24:56;;;;;;;8.23;7.40;;;20.40;99.90;;;;;;2069113;28;21169;-83
2023/08/22 01:25:58;;;;;;;7.67;6.50;;;20.40;99.90;;;;;;2059556;28;20236;-84
2023/08/22 01:26:58;;;;;;;10.60;7.57;;;20.40;99.90;;;;;;2058411;28;20276;-84
2023/08/22 01:28:30;;;;;;;9.53;7.43;;;20.40;99.90;;;;;;2063997;28;20468;-82
2023/08/22 01:29:40;;;;;;;9.40;7.67;;;20.40;99.90;;;;;;2075202;28;20287;-84
2023/08/22 01:31:08;;;;;;;15.63;7.77;;;20.30;99.90;;;;;;2065920;28;20472;-84
2023/08/22 01:32:23;;;;;;;8.13;6.73;;;20.30;99.90;;;;;;2063862;28;20983;-83
2023/08/22 01:33:33;;;;;;;8.67;7.20;;;20.30;99.90;;;;;;2073725;28;20471;-81
2023/08/22 01:34:37;;;;;;;9.80;7.10;;;20.20;99.90;;;;;;2064639;28;20473;-81
2023/08/22 01:35:40;;;;;;;8.83;7.23;;;20.20;99.90;;;;;;2056239;28;20480;-83
2023/08/22 01:36:45;;;;;;;7.97;7.17;;;20.10;99.90;;;;;;2065048;28;20534;-82
2023/08/22 01:37:49;;;;;;;10.10;7.90;;;20.10;99.90;;;;;;2069037;28;20463;-81
2023/08/22 01:38:50;;;;;;;9.70;8.07;;;20.10;99.90;;;;;;2067009;28;20474;-81
2023/08/22 01:39:56;;;;;;;10.93;8.17;;;20.10;99.90;;;;;;2072001;28;20486;-81
2023/08/22 01:40:58;;;;;;;8.53;7.67;;;20.20;99.90;;;;;;2073543;28;20899;-83
2023/08/22 01:41:59;;;;;;;9.37;7.40;;;20.10;99.90;;;;;;2072022;28;20501;-83
2023/08/22 01:43:00;;;;;;;10.30;7.90;;;20.20;99.90;;;;;;2055741;28;20621;-83
2023/08/22 01:44:03;;;;;;;10.67;8.17;;;20.10;99.90;;;;;;2058326;28;20483;-82
2023/08/22 01:45:04;;;;;;;8.77;7.80;;;20.20;99.90;;;;;;2062789;28;20306;-82
2023/08/22 01:46:06;;;;;;;10.13;7.97;;;20.20;99.90;;;;;;2076829;28;20454;-83
2023/08/22 01:47:07;;;;;;;7.90;7.10;;;20.20;99.90;;;;;;2075160;28;20445;-81
2023/08/22 01:48:08;;;;;;;8.53;7.67;;;20.20;99.90;;;;;;2063871;28;20423;-83
2023/08/22 01:49:09;;;;;;;9.17;7.37;;;20.20;99.90;;;;;;2063544;28;20189;-83
2023/08/22 01:50:10;;;;;;;9.47;7.53;;;20.10;99.90;;;;;;2067556;28;20222;-82
2023/08/22 01:51:11;;;;;;;8.33;7.50;;;20.20;99.90;;;;;;2070569;28;20188;-83
2023/08/22 01:52:11;;;;;;;10.20;7.37;;;20.20;99.90;;;;;;2071279;28;20873;-82
2023/08/22 01:53:12;;;;;;;9.10;7.80;;;20.10;99.90;;;;;;2070025;28;20178;-82
2023/08/22 01:54:14;;;;;;;9.87;7.37;;;20.10;99.90;;;;;;2065780;28;20681;-82
2023/08/22 01:55:15;;;;;;;9.57;7.37;;;20.10;99.90;;;;;;2065460;28;20194;-83
2023/08/22 01:56:16;;;;;;;9.43;6.50;;;20.10;99.90;;;;;;2069865;28;20419;-82
2023/08/22 01:57:16;;;;;;;9.90;6.67;;;20.10;99.90;;;;;;2053021;28;20881;-83
2023/08/22 01:58:17;;;;;;;9.27;7.27;;;20.00;99.90;;;;;;2060637;28;20190;-83
2023/08/22 01:59:18;;;;;;;8.23;7.23;;;19.90;99.90;;;;;;2068374;28;20262;-83
2023/08/22 02:00:19;;;;;;;9.23;7.43;;;20.00;99.90;;;;;;2070962;28;20221;-82
2023/08/22 02:01:20;;;;;;;8.93;7.03;;;20.00;99.90;;;;;;2063830;28;20209;-83
2023/08/22 02:02:21;;;;;;;8.50;7.27;;;20.00;99.90;;;;;;2056637;28;20709;-82
2023/08/22 02:03:25;;;;;;;7.97;7.17;;;20.00;99.90;;;;;;2053047;28;20475;-82
2023/08/22 02:04:27;;;;;;;8.87;7.07;;;20.00;99.90;;;;;;2056774;28;21165;-83
2023/08/22 02:05:27;;;;;;;7.63;6.57;;;20.00;99.90;;;;;;2048362;28;20975;-83
2023/08/22 02:06:28;;;;;;;8.77;7.30;;;20.00;99.90;;;;;;2065029;28;20467;-83
2023/08/22 02:07:29;;;;;;;10.80;7.17;;;20.00;99.90;;;;;;2073728;28;20255;-84
2023/08/22 02:08:30;;;;;;;6.97;6.27;;;20.00;99.90;;;;;;2072172;28;20707;-83
2023/08/22 02:09:30;;;;;;;11.07;7.27;;;20.10;99.90;;;;;;2064203;28;20234;-83
2023/08/22 02:10:31;;;;;;;8.63;6.93;;;20.10;99.90;;;;;;2062200;28;20233;-84
2023/08/22 02:11:32;;;;;;;9.63;7.27;;;20.00;99.90;;;;;;2072042;28;20237;-82
2023/08/22 02:12:33;;;;;;;11.43;6.77;;;20.00;99.90;;;;;;2073144;28;20276;-83
2023/08/22 02:13:34;;;;;;;7.37;6.13;;;19.90;99.90;;;;;;2068602;28;20853;-82
2023/08/22 02:14:34;;;;;;;9.07;7.10;;;19.90;99.90;;;;;;2076749;28;20638;-83
2023/08/22 02:15:35;;;;;;;9.07;7.53;;;20.00;99.90;;;;;;2072137;28;20233;-83
2023/08/22 02:16:37;;;;;;;8.57;7.60;;;20.00;99.90;;;;;;2077172;28;20324;-82
2023/08/22 02:17:38;;;;;;;7.73;6.93;;;20.00;99.90;;;;;;2068437;28;20279;-84
2023/08/22 02:18:39;;;;;;;9.37;7.30;;;20.00;99.90;;;;;;2065437;28;20471;-82
2023/08/22 02:19:40;;;;;;;8.53;7.60;;;20.00;99.90;;;;;;2067665;28;20494;-83
2023/08/22 02:20:41;;;;;;;8.90;6.60;;;20.00;99.90;;;;;;2064605;28;20265;-83
2023/08/22 02:21:42;;;;;;;7.97;7.17;;;20.00;99.90;;;;;;2071897;28;20607;-83
2023/08/22 02:22:43;;;;;;;7.60;6.83;;;20.00;99.90;;;;;;2072224;28;20465;-82
2023/08/22 02:23:44;;;;;;;7.70;6.90;;;20.00;99.90;;;;;;2072373;28;20236;-83
2023/08/22 02:24:44;;;;;;;9.20;6.83;;;19.90;99.90;;;;;;2072597;28;20229;-82
2023/08/22 02:25:48;;;;;;;7.70;6.90;;;19.90;99.90;;;;;;2072428;28;20312;-83
2023/08/22 02:26:49;;;;;;;8.27;6.80;;;19.80;99.90;;;;;;2073813;28;20358;-83
2023/08/22 02:27:50;;;;;;;7.90;7.10;;;19.70;99.90;;;;;;2069426;28;20481;-83
2023/08/22 02:28:52;;;;;;;7.13;6.43;;;19.70;99.90;;;;;;2062027;28;20218;-81
2023/08/22 02:29:53;;;;;;;8.40;7.30;;;19.70;99.90;;;;;;2064063;28;20302;-84
2023/08/22 02:30:55;;;;;;;7.97;6.70;;;19.70;99.90;;;;;;2065175;28;20479;-83
2023/08/22 02:31:56;;;;;;;8.20;7.17;;;19.70;99.90;;;;;;2064715;28;20225;-84
2023/08/22 02:32:57;;;;;;;8.53;7.20;;;19.70;99.90;;;;;;2064323;28;20460;-82
2023/08/22 02:33:57;;;;;;;9.47;7.97;;;19.70;99.90;;;;;;2063543;28;20470;-83
2023/08/22 02:34:58;;;;;;;8.53;6.77;;;19.80;99.90;;;;;;2059987;28;20237;-82
2023/08/22 02:35:59;;;;;;;8.17;6.93;;;19.80;99.90;;;;;;2060505;28;20233;-83
2023/08/22 02:36:59;;;;;;;10.63;6.97;;;19.60;99.90;;;;;;2072155;28;20782;-84
2023/08/22 02:38:00;;;;;;;9.27;7.47;;;19.70;99.90;;;;;;2072535;28;20728;-82
2023/08/22 02:39:01;;;;;;;8.33;7.13;;;19.70;99.90;;;;;;2068021;28;20221;-82
2023/08/22 02:40:05;;;;;;;10.67;7.73;;;19.70;99.90;;;;;;2058623;28;20232;-83
2023/08/22 02:41:06;;;;;;;9.37;7.53;;;19.60;99.90;;;;;;2062042;28;20447;-83
2023/08/22 02:42:06;;;;;;;8.57;7.67;;;19.60;99.90;;;;;;2069949;28;20437;-83
2023/08/22 02:43:07;;;;;;;7.97;7.10;;;19.70;99.90;;;;;;2071519;28;20247;-82
2023/08/22 02:44:08;;;;;;;8.30;7.50;;;19.70;99.90;;;;;;2072514;28;20255;-82
2023/08/22 02:45:09;;;;;;;8.43;7.53;;;19.70;99.90;;;;;;2069993;28;20327;-82
2023/08/22 02:46:10;;;;;;;8.33;6.80;;;19.70;99.90;;;;;;2063579;28;20190;-84
2023/08/22 02:47:11;;;;;;;10.83;7.50;;;19.70;99.90;;;;;;2063537;28;20535;-83
2023/08/22 02:48:11;;;;;;;8.27;7.43;;;19.70;99.90;;;;;;2071254;28;20634;-82
2023/08/22 02:49:12;;;;;;;8.90;7.27;;;19.60;99.90;;;;;;2056103;28;20210;-83
2023/08/22 02:50:13;;;;;;;10.60;7.40;;;19.70;99.90;;;;;;2052013;28;20186;-83
2023/08/22 02:51:14;;;;;;;10.23;7.50;;;19.70;99.90;;;;;;2064363;28;20181;-84
2023/08/22 02:52:14;;;;;;;8.70;7.07;;;19.70;99.90;;;;;;2076740;28;20213;-82
2023/08/22 02:53:15;;;;;;;8.63;7.10;;;19.60;99.90;;;;;;2075805;28;20186;-82
2023/08/22 02:54:16;;;;;;;9.63;7.17;;;19.60;99.90;;;;;;2070461;28;20192;-84
2023/08/22 02:55:17;;;;;;;9.57;7.13;;;19.70;99.90;;;;;;2069161;28;20221;-83
2023/08/22 02:56:18;;;;;;;8.47;7.13;;;19.60;99.90;;;;;;2071614;28;20253;-83
2023/08/22 02:57:19;;;;;;;8.30;7.33;;;19.60;99.90;;;;;;2071965;28;20423;-83
2023/08/22 02:58:19;;;;;;;8.33;7.40;;;19.60;99.90;;;;;;2069503;28;20647;-83
2023/08/22 02:59:20;;;;;;;11.07;7.77;;;19.50;99.90;;;;;;2067828;28;20191;-84
2023/08/22 03:00:21;;;;;;;9.70;7.33;;;19.50;99.90;;;;;;2068522;28;20241;-83
2023/08/22 03:01:22;;;;;;;10.53;7.00;;;19.40;99.90;;;;;;2065006;28;20292;-83
2023/08/22 03:02:23;;;;;;;7.90;7.07;;;19.50;99.90;;;;;;2072436;28;20466;-82
2023/08/22 03:03:23;;;;;;;8.77;7.87;;;19.50;99.90;;;;;;2071611;28;20236;-82
2023/08/22 03:04:24;;;;;;;8.57;6.87;;;19.50;99.90;;;;;;2071655;28;20236;-82
2023/08/22 03:05:25;;;;;;;9.20;7.20;;;19.50;99.90;;;;;;2070655;28;20238;-83
2023/08/22 03:06:26;;;;;;;7.53;6.73;;;19.60;99.90;;;;;;2072121;28;20229;-84
2023/08/22 03:07:26;;;;;;;9.47;7.33;;;19.60;99.90;;;;;;2069015;28;20276;-83
2023/08/22 03:08:27;;;;;;;9.90;7.03;;;19.50;99.90;;;;;;2070112;28;20226;-82
2023/08/22 03:09:29;;;;;;;9.97;7.20;;;19.40;99.90;;;;;;2064368;28;20230;-83
2023/08/22 03:10:29;;;;;;;8.73;6.77;;;19.40;99.90;;;;;;2067746;28;20236;-83
2023/08/22 03:11:30;;;;;;;9.07;7.23;;;19.40;99.90;;;;;;2079472;28;20462;-84
2023/08/22 03:12:31;;;;;;;10.63;7.17;;;19.40;99.90;;;;;;2067729;28;20230;-83
2023/08/22 03:13:32;;;;;;;9.43;7.80;;;19.40;99.90;;;;;;2065898;28;20311;-83
2023/08/22 03:14:32;;;;;;;8.63;6.90;;;19.50;99.90;;;;;;2068026;28;20630;-84
2023/08/22 03:15:33;;;;;;;10.53;7.03;;;19.40;99.90;;;;;;2067767;28;20237;-83
2023/08/22 03:16:34;;;;;;;8.33;7.43;;;19.40;99.90;;;;;;2063237;28;20225;-83
2023/08/22 03:17:34;;;;;;;7.63;6.57;;;19.40;99.90;;;;;;2050381;28;20322;-83
2023/08/22 03:18:35;;;;;;;10.87;7.13;;;19.50;99.90;;;;;;2050850;28;20238;-82
2023/08/22 03:19:36;;;;;;;9.43;7.40;;;19.40;99.90;;;;;;2054486;28;20318;-83
2023/08/22 03:20:37;;;;;;;8.57;7.33;;;19.40;99.90;;;;;;2062196;28;20234;-83
2023/08/22 03:21:37;;;;;;;9.23;7.87;;;19.40;99.90;;;;;;2062457;28;20227;-82
2023/08/22 03:22:38;;;;;;;10.13;7.47;;;19.40;99.90;;;;;;2062171;28;20289;-82
2023/08/22 03:23:39;;;;;;;8.53;7.07;;;19.40;99.90;;;;;;2060195;28;20235;-82
2023/08/22 03:24:39;;;;;;;7.90;6.50;;;19.40;99.90;;;;;;2069402;28;20722;-83
2023/08/22 03:25:40;;;;;;;11.10;7.53;;;19.40;99.90;;;;;;2064165;28;20218;-83
2023/08/22 03:26:41;;;;;;;8.37;7.23;;;19.30;99.90;;;;;;2064092;28;20222;-82
2023/08/22 03:27:42;;;;;;;8.83;7.27;;;19.30;99.90;;;;;;2063704;28;20218;-83
2023/08/22 03:28:42;;;;;;;7.97;7.17;;;19.30;99.90;;;;;;2055550;28;20227;-83
2023/08/22 03:29:43;;;;;;;11.90;10.73;;;19.30;99.90;;;;;;2064390;28;20236;-82
2023/08/22 03:30:44;;;;;;;8.40;7.60;;;19.30;99.90;;;;;;2063722;28;20261;-82
2023/08/22 03:31:45;;;;;;;8.60;7.70;;;19.30;99.90;;;;;;2080221;28;20229;-81
2023/08/22 03:32:45;;;;;;;8.37;7.57;;;19.30;99.90;;;;;;2072720;28;20233;-81
2023/08/22 03:33:46;;;;;;;10.27;7.60;;;19.20;99.90;;;;;;2071611;28;21056;-83
2023/08/22 03:34:47;;;;;;;9.37;7.47;;;19.10;99.90;;;;;;2068968;28;20222;-83
2023/08/22 03:35:48;;;;;;;8.20;7.40;;;19.10;99.90;;;;;;2064288;28;20596;-83
2023/08/22 03:36:48;;;;;;;9.23;7.83;;;19.10;99.90;;;;;;2056531;28;20234;-83
2023/08/22 03:37:49;;;;;;;8.07;6.90;;;19.10;99.90;;;;;;2063839;28;20230;-82
2023/08/22 03:38:51;;;;;;;9.13;7.80;;;19.10;99.90;;;;;;2061532;28;20261;-83
2023/08/22 03:39:52;;;;;;;9.53;7.40;;;19.10;99.90;;;;;;2067980;28;20805;-83
2023/08/22 03:40:55;;;;;;;7.63;6.90;;;19.10;99.90;;;;;;2068269;28;20475;-83
2023/08/22 03:41:56;;;;;;;9.00;7.27;;;19.20;99.90;;;;;;2064845;28;20223;-83
2023/08/22 03:42:56;;;;;;;8.40;7.50;;;19.20;99.90;;;;;;2073028;28;20463;-83
2023/08/22 03:43:57;;;;;;;8.53;7.53;;;19.20;99.90;;;;;;2080622;28;20248;-83
2023/08/22 03:44:58;;;;;;;8.47;7.07;;;19.20;99.90;;;;;;2066864;28;20225;-83
2023/08/22 03:45:58;;;;;;;9.10;7.60;;;19.20;99.90;;;;;;2067142;28;20214;-83
2023/08/22 03:46:59;;;;;;;8.60;7.47;;;19.20;99.90;;;;;;2072326;28;20225;-82
2023/08/22 03:48:03;;;;;;;12.00;7.80;;;19.20;99.90;;;;;;2071775;28;20259;-82
2023/08/22 03:49:04;;;;;;;7.87;7.07;;;19.20;99.90;;;;;;2070389;28;20234;-82
2023/08/22 03:50:05;;;;;;;9.77;7.43;;;19.20;99.90;;;;;;2071705;28;20419;-83
2023/08/22 03:51:06;;;;;;;8.40;7.60;;;19.20;99.90;;;;;;2069228;28;20178;-82
2023/08/22 03:52:07;;;;;;;8.83;7.93;;;19.10;99.90;;;;;;2061361;28;20420;-82
2023/08/22 03:53:10;;;;;;;8.77;7.50;;;19.10;99.90;;;;;;2052811;28;20429;-83
2023/08/22 03:54:10;;;;;;;8.63;7.73;;;19.10;99.90;;;;;;2052858;28;20649;-83
2023/08/22 03:55:11;;;;;;;8.70;7.80;;;19.10;99.90;;;;;;2062007;28;20428;-82
2023/08/22 03:56:12;;;;;;;10.40;7.63;;;19.10;99.90;;;;;;2071223;28;20206;-80
2023/08/22 03:57:12;;;;;;;8.57;7.63;;;19.20;99.90;;;;;;2071242;28;20620;-82
2023/08/22 03:58:13;;;;;;;9.60;7.27;;;19.10;99.90;;;;;;2070883;28;20264;-81
2023/08/22 03:59:14;;;;;;;9.07;7.63;;;19.20;99.90;;;;;;2071538;28;20189;-82
2023/08/22 04:00:15;;;;;;;8.47;7.63;;;19.10;99.90;;;;;;2055708;28;20206;-81
2023/08/22 04:01:15;;;;;;;8.77;7.87;;;19.10;99.90;;;;;;2054428;28;20298;-81
2023/08/22 04:02:16;;;;;;;9.13;7.80;;;19.10;99.90;;;;;;2055033;28;20433;-82
2023/08/22 04:03:17;;;;;;;11.20;8.60;;;19.10;99.90;;;;;;2054628;28;20190;-82
2023/08/22 04:04:17;;;;;;;8.40;7.40;;;19.10;99.90;;;;;;2063140;28;20197;-82
2023/08/22 04:05:18;;;;;;;9.97;7.67;;;19.10;99.90;;;;;;2061026;28;20224;-82
2023/08/22 04:06:19;;;;;;;10.67;8.00;;;19.10;99.90;;;;;;2052245;28;20616;-81
2023/08/22 04:07:20;;;;;;;9.70;7.73;;;19.10;99.90;;;;;;2063057;28;20198;-80
2023/08/22 04:08:20;;;;;;;9.87;8.17;;;19.00;99.90;;;;;;2079263;28;20267;-81
2023/08/22 04:09:21;;;;;;;8.37;7.33;;;19.10;99.90;;;;;;2070809;28;20284;-83
2023/08/22 04:10:22;;;;;;;8.53;7.17;;;19.00;99.90;;;;;;2068051;28;20289;-81
2023/08/22 04:11:23;;;;;;;9.43;7.07;;;19.00;99.90;;;;;;2071244;28;20232;-82
2023/08/22 04:12:23;;;;;;;9.03;7.20;;;19.00;99.90;;;;;;2071353;28;20225;-83
2023/08/22 04:13:24;;;;;;;8.37;7.57;;;19.00;99.90;;;;;;2071068;28;20367;-82
2023/08/22 04:14:25;;;;;;;8.00;7.20;;;19.00;99.90;;;;;;2055869;28;20243;-83
2023/08/22 04:15:25;;;;;;;8.50;7.10;;;19.00;99.90;;;;;;2057765;28;20231;-83
2023/08/22 04:16:26;;;;;;;10.20;8.17;;;19.00;99.90;;;;;;2063326;28;20288;-83
2023/08/22 04:17:27;;;;;;;7.83;7.07;;;19.10;99.90;;;;;;2067939;28;20230;-83
2023/08/22 04:18:28;;;;;;;8.23;7.33;;;19.00;99.90;;;;;;2063201;28;20252;-83
2023/08/22 04:19:28;;;;;;;10.50;8.10;;;19.00;99.90;;;;;;2055629;28;20223;-83
2023/08/22 04:20:29;;;;;;;9.73;7.87;;;18.90;99.90;;;;;;2063480;28;20236;-83
2023/08/22 04:21:30;;;;;;;9.80;8.07;;;18.90;99.90;;;;;;2071637;28;20252;-83
2023/08/22 04:22:30;;;;;;;10.83;8.27;;;18.90;99.90;;;;;;2071116;28;20225;-83
2023/08/22 04:23:31;;;;;;;8.37;7.57;;;18.90;99.90;;;;;;2067551;28;20229;-83
2023/08/22 04:24:32;;;;;;;8.80;7.67;;;18.90;99.90;;;;;;2067101;28;20714;-83
2023/08/22 04:25:32;;;;;;;8.73;7.90;;;19.00;99.90;;;;;;2063326;28;20350;-83
2023/08/22 04:26:33;;;;;;;11.17;8.27;;;19.00;99.90;;;;;;2053215;28;20322;-83
2023/08/22 04:27:34;;;;;;;10.50;8.27;;;19.00;99.90;;;;;;2062616;28;20234;-83
2023/08/22 04:28:36;;;;;;;9.10;8.20;;;19.00;99.90;;;;;;2071153;28;20225;-83
2023/08/22 04:29:37;;;;;;;9.90;8.03;;;19.00;99.90;;;;;;2070955;28;20229;-83
2023/08/22 04:30:38;;;;;;;8.73;7.57;;;19.00;99.90;;;;;;2068829;28;20530;-83
2023/08/22 04:31:38;;;;;;;9.60;8.60;;;18.90;99.90;;;;;;2063871;28;20226;-83
2023/08/22 04:32:39;;;;;;;9.37;8.47;;;19.00;99.90;;;;;;2059999;28;20237;-83
2023/08/22 04:33:40;;;;;;;9.10;7.83;;;19.00;99.90;;;;;;2069385;28;20225;-83
2023/08/22 04:34:40;;;;;;;9.43;8.47;;;19.00;99.90;;;;;;2070724;28;20236;-83
2023/08/22 04:35:41;;;;;;;9.13;8.23;;;18.90;99.90;;;;;;2063321;28;20253;-83
2023/08/22 04:36:42;;;;;;;8.93;8.00;;;18.90;99.90;;;;;;2054850;28;20640;-83
2023/08/22 04:37:43;;;;;;;12.03;8.23;;;18.90;99.90;;;;;;2065163;28;20222;-84
2023/08/22 04:38:43;;;;;;;10.73;7.93;;;19.00;99.90;;;;;;2066308;28;20233;-84
2023/08/22 04:39:44;;;;;;;10.30;7.67;;;19.00;99.90;;;;;;2054511;28;20226;-81
2023/08/22 04:40:46;;;;;;;9.17;8.27;;;19.00;99.90;;;;;;2063111;28;20223;-83
2023/08/22 04:41:46;;;;;;;9.97;7.90;;;19.00;99.90;;;;;;2067859;28;20224;-83
2023/08/22 04:42:47;;;;;;;10.20;8.20;;;19.00;99.90;;;;;;2059573;28;20463;-83
2023/08/22 04:43:48;;;;;;;8.30;7.50;;;19.00;99.90;;;;;;2058729;28;20228;-81
2023/08/22 04:44:49;;;;;;;8.70;7.80;;;19.00;99.90;;;;;;2061619;28;20228;-83
2023/08/22 04:45:53;;;;;;;8.83;7.47;;;19.00;99.90;;;;;;2066822;28;20289;-83
2023/08/22 04:46:53;;;;;;;9.30;8.13;;;19.00;99.90;;;;;;2059028;28;20284;-83
2023/08/22 04:47:54;;;;;;;9.07;8.17;;;19.00;99.90;;;;;;2061853;28;20502;-82
2023/08/22 04:48:55;;;;;;;11.73;8.70;;;19.00;99.90;;;;;;2074123;28;20221;-82
2023/08/22 04:49:55;;;;;;;9.43;8.03;;;19.00;99.90;;;;;;2074022;28;20308;-81
2023/08/22 04:50:56;;;;;;;8.73;7.80;;;18.90;99.90;;;;;;2074122;28;20268;-82
2023/08/22 04:51:57;;;;;;;8.43;7.53;;;18.90;99.90;;;;;;2085417;28;20284;-82
2023/08/22 04:52:58;;;;;;;9.50;7.87;;;18.90;99.90;;;;;;2076075;28;20240;-83
2023/08/22 04:53:58;;;;;;;9.27;8.27;;;19.00;99.90;;;;;;2067739;28;20713;-83
2023/08/22 04:55:01;;;;;;;8.70;7.77;;;19.00;99.90;;;;;;2062313;28;20671;-83
2023/08/22 04:56:02;;;;;;;8.30;7.20;;;19.00;99.90;;;;;;2059690;28;20222;-83
2023/08/22 04:57:02;;;;;;;9.17;8.27;;;19.10;99.90;;;;;;2054137;28;20927;-83
2023/08/22 04:58:03;;;;;;;8.87;7.97;;;19.10;99.90;;;;;;2060066;28;20217;-82
2023/08/22 04:59:04;;;;;;;8.30;7.50;;;19.20;99.90;;;;;;2070666;28;20197;-83
2023/08/22 05:00:09;;;;;;;7.80;6.87;;;19.30;99.90;;;;;;2076985;28;20279;-82
2023/08/22 05:01:10;;;;;;;7.87;7.07;;;19.20;99.90;;;;;;2070402;28;20248;-83
2023/08/22 05:02:11;;;;;;;8.03;7.23;;;19.30;99.90;;;;;;2058587;28;20600;-83
2023/08/22 05:03:11;;;;;;;8.03;7.23;;;19.30;99.90;;;;;;2054411;28;20492;-83
2023/08/22 05:04:12;;;;;;;8.97;7.30;;;19.30;99.90;;;;;;2054630;28;20187;-83
2023/08/22 05:05:13;;;;;;;8.30;7.10;;;19.30;99.90;;;;;;2052749;28;20203;-82
2023/08/22 05:06:13;;;;;;;9.60;7.23;;;19.30;99.90;;;;;;2054399;28;20281;-82
2023/08/22 05:07:14;;;;;;;7.90;7.10;;;19.30;99.90;;;;;;2063030;28;20218;-83
2023/08/22 05:08:15;;;;;;;8.50;7.60;;;19.30;99.90;;;;;;2070299;28;20181;-83
2023/08/22 05:09:16;;;;;;;8.33;6.87;;;19.30;99.90;;;;;;2063051;28;20178;-83
2023/08/22 05:10:17;;;;;;;10.87;7.00;;;19.20;99.90;;;;;;2069770;28;20453;-82
2023/08/22 05:11:18;;;;;;;11.30;7.47;;;19.20;99.90;;;;;;2069332;28;20423;-83
2023/08/22 05:12:18;;;;;;;8.97;7.23;;;19.30;99.90;;;;;;2068561;28;20822;-82
2023/08/22 05:13:19;;;;;;;8.37;7.37;;;19.30;99.90;;;;;;2079194;28;20192;-82
2023/08/22 05:14:21;;;;;;;9.07;7.97;;;19.30;99.90;;;;;;2079484;28;20279;-83
2023/08/22 05:15:22;;;;;;;7.70;6.90;;;19.30;99.90;;;;;;2070670;28;20257;-83
2023/08/22 05:16:23;;;;;;;9.03;7.67;;;19.40;99.90;;;;;;2063330;28;20471;-83
2023/08/22 05:17:23;;;;;;;7.83;7.00;;;19.40;99.90;;;;;;2069836;28;20236;-83
2023/08/22 05:18:24;;;;;;;8.00;7.20;;;19.40;99.90;;;;;;2078530;28;20303;-83
2023/08/22 05:19:25;;;;;;;8.43;6.80;;;19.40;99.90;;;;;;2071893;28;20232;-83
2023/08/22 05:20:26;;;;;;;8.40;7.03;;;19.50;99.90;;;;;;2063364;28;20254;-83